Preble, Wisconsin
Current Conditions -  °F | °C
As of 4:53 PM on Friday 19 Dec 2014 (Local Time) from KGRB Reporting Station
Clear Clear  
Wind Chill: 28°   Ceiling: Unl
Heat Index: 28°   Visibility: 10mi
Dew Point: 20°   Wind: 0mph
Humidity: 72%   Direction: NA
Pressure: 30.29"   Gusts: NA
Location:  44.5075°N, 87.9746°W
Report Text: KGRB 192253Z 00000KT 10SM CLR M02/M07 A3029 RMK AO2 SLP269 T10221067
Loading
Personal Weather Stations






























Interactive Weather Map New forecast layout! Learn more

10-Day Weather Forecast

Advertisements
Track Severe Weather on mobile